createdAt,value
2019-04-01T00:00:16.865Z,19.37
2019-04-01T00:02:45.277Z,18.00
2019-04-01T00:05:13.874Z,16.77
2019-04-01T00:07:42.285Z,22.30
2019-04-01T00:10:10.786Z,20.33
2019-04-01T00:12:39.205Z,20.50
2019-04-01T00:15:08.090Z,15.47
2019-04-01T00:17:36.543Z,19.40
2019-04-01T00:20:06.504Z,19.97
2019-04-01T00:22:35.237Z,24.47
2019-04-01T00:25:04.197Z,18.60
2019-04-01T00:27:32.605Z,25.30
2019-04-01T00:30:01.239Z,21.30
2019-04-01T00:32:29.695Z,19.00
2019-04-01T00:34:58.117Z,18.93
2019-04-01T00:37:26.543Z,25.53
2019-04-01T00:39:55.179Z,20.50
2019-04-01T00:42:25.526Z,21.10
2019-04-01T00:44:53.954Z,22.50
2019-04-01T00:47:22.372Z,21.20
2019-04-01T00:49:50.801Z,21.57
2019-04-01T00:52:19.224Z,18.63
2019-04-01T00:54:47.986Z,21.30
2019-04-01T00:57:16.405Z,17.30
2019-04-01T00:59:44.838Z,23.10
2019-04-01T01:02:13.252Z,19.67
2019-04-01T01:04:41.683Z,19.60
2019-04-01T01:07:10.362Z,17.80
2019-04-01T01:09:38.794Z,18.90
2019-04-01T01:12:07.227Z,17.80
2019-04-01T01:14:35.658Z,19.20
2019-04-01T01:17:04.078Z,19.00
2019-04-01T01:19:32.765Z,15.20
2019-04-01T01:22:01.185Z,19.00
2019-04-01T01:24:32.511Z,20.40
2019-04-01T01:26:59.829Z,18.73
2019-04-01T01:29:28.330Z,22.10
2019-04-01T01:31:56.740Z,18.80
2019-04-01T01:34:25.410Z,21.77
2019-04-01T01:36:53.841Z,20.83
2019-04-01T01:39:22.265Z,24.20
2019-04-01T01:41:50.772Z,23.23
2019-04-01T01:44:19.185Z,18.37
2019-04-01T01:46:47.617Z,16.37
2019-04-01T01:49:16.250Z,22.37
2019-04-01T01:51:44.717Z,18.70
2019-04-01T01:54:13.138Z,22.17
2019-04-01T01:56:41.565Z,23.30
2019-04-01T01:59:09.973Z,22.47
2019-04-01T02:01:38.402Z,20.70
2019-04-01T02:04:07.082Z,24.80
2019-04-01T02:06:35.765Z,25.47
2019-04-01T02:09:05.619Z,21.47
2019-04-01T02:11:34.058Z,26.40
2019-04-01T02:14:02.473Z,23.47
2019-04-01T02:16:30.902Z,27.70
2019-04-01T02:18:59.317Z,21.77
2019-04-01T02:21:27.749Z,31.90
2019-04-01T02:23:56.406Z,22.17
2019-04-01T02:26:24.838Z,24.30
2019-04-01T02:28:53.250Z,22.77
2019-04-01T02:31:21.881Z,35.60
2019-04-01T02:33:50.339Z,25.20
2019-04-01T02:36:18.983Z,24.37
2019-04-01T02:38:47.438Z,26.50
2019-04-01T02:41:16.123Z,23.17
2019-04-01T02:43:44.798Z,25.03
2019-04-01T02:46:13.225Z,26.93
2019-04-01T02:48:41.650Z,29.10
2019-04-01T02:51:10.303Z,35.70
2019-04-01T02:53:38.745Z,25.60
2019-04-01T02:56:07.382Z,36.17
2019-04-01T02:58:35.841Z,27.23
2019-04-01T03:01:04.269Z,28.10
2019-04-01T03:03:32.683Z,29.93
2019-04-01T03:06:01.328Z,27.90
2019-04-01T03:08:30.026Z,28.93
2019-04-01T03:10:58.862Z,30.30
2019-04-01T03:13:27.278Z,31.13
2019-04-01T03:15:55.930Z,31.17
2019-04-01T03:18:24.661Z,33.40
2019-04-01T03:20:53.117Z,30.10
2019-04-01T03:23:21.534Z,33.90
2019-04-01T03:25:50.207Z,33.47
2019-04-01T03:28:18.882Z,35.43
2019-04-01T03:30:47.312Z,36.37
2019-04-01T03:33:15.996Z,38.63
2019-04-01T03:35:44.488Z,36.77
2019-04-01T03:38:12.897Z,32.50
2019-04-01T03:40:41.321Z,32.60
2019-04-01T03:43:09.750Z,30.73
2019-04-01T03:45:38.181Z,38.53
2019-04-01T03:48:06.603Z,31.73
2019-04-01T03:50:38.235Z,36.50
2019-04-01T03:53:06.897Z,39.40
2019-04-01T03:55:35.451Z,39.43
2019-04-01T03:58:03.908Z,43.40
2019-04-01T04:00:32.388Z,41.40
2019-04-01T04:03:00.818Z,39.47
2019-04-01T04:05:29.451Z,44.27
2019-04-01T04:07:57.922Z,35.10
2019-04-01T04:10:26.567Z,36.03
2019-04-01T04:12:55.039Z,45.87
2019-04-01T04:15:23.452Z,43.33
2019-04-01T04:17:51.954Z,45.47
2019-04-01T04:20:20.366Z,40.33
2019-04-01T04:22:49.054Z,50.07
2019-04-01T04:25:17.469Z,49.13
2019-04-01T04:27:45.893Z,41.03
2019-04-01T04:30:17.677Z,51.80
2019-04-01T04:32:46.148Z,43.47
2019-04-01T04:35:14.562Z,51.43
2019-04-01T04:37:43.510Z,53.77
2019-04-01T04:40:11.922Z,50.00
2019-04-01T04:42:40.354Z,47.57
2019-04-01T04:45:09.089Z,48.83
2019-04-01T04:47:37.802Z,51.07
2019-04-01T04:50:06.373Z,48.50
2019-04-01T04:52:34.796Z,48.37
2019-04-01T04:55:03.601Z,49.50
2019-04-01T04:57:32.090Z,51.70
2019-04-01T05:00:00.522Z,57.30
2019-04-01T05:02:29.001Z,50.43
2019-04-01T05:04:57.671Z,51.30
2019-04-01T05:07:26.094Z,62.13
2019-04-01T05:09:54.500Z,54.53
2019-04-01T05:12:22.941Z,51.17
2019-04-01T05:14:51.361Z,47.73
2019-04-01T05:17:20.060Z,50.07
2019-04-01T05:19:48.517Z,51.90
2019-04-01T05:22:19.184Z,57.73
2019-04-01T05:24:48.293Z,50.70
2019-04-01T05:27:19.725Z,58.87
2019-04-01T05:29:50.921Z,58.77
2019-04-01T05:32:21.253Z,54.20
2019-04-01T05:34:51.673Z,53.20
2019-04-01T05:37:20.354Z,55.23
2019-04-01T05:39:48.770Z,51.10
2019-04-01T05:42:17.458Z,54.70
2019-04-01T05:44:45.948Z,54.57
2019-04-01T05:47:14.377Z,68.03
2019-04-01T05:49:42.793Z,49.00
2019-04-01T05:52:11.305Z,50.60
2019-04-01T05:54:40.150Z,53.80
2019-04-01T05:57:08.694Z,45.47
2019-04-01T05:59:37.173Z,50.50
2019-04-01T06:02:06.602Z,53.43
2019-04-01T06:04:35.024Z,58.37
2019-04-01T06:07:03.589Z,43.90
2019-04-01T06:09:32.269Z,47.23
2019-04-01T06:12:00.974Z,63.17
2019-04-01T06:14:29.706Z,55.10
2019-04-01T06:16:58.446Z,47.67
2019-04-01T06:19:26.865Z,46.07
2019-04-01T06:21:55.660Z,44.80
2019-04-01T06:24:24.986Z,49.20
2019-04-01T06:26:53.533Z,49.00
2019-04-01T06:29:22.293Z,44.00
2019-04-01T06:31:50.774Z,47.63
2019-04-01T06:34:19.277Z,51.60
2019-04-01T06:36:48.073Z,55.17
2019-04-01T06:39:16.545Z,44.40
2019-04-01T06:41:44.957Z,49.60
2019-04-01T06:44:13.381Z,47.10
2019-04-01T06:46:41.797Z,44.67
2019-04-01T06:49:10.297Z,47.53
2019-04-01T06:51:38.957Z,46.07
2019-04-01T06:54:07.385Z,44.63
2019-04-01T06:56:36.193Z,49.23
2019-04-01T06:59:04.665Z,46.83
2019-04-01T07:01:33.332Z,50.30
2019-04-01T07:04:01.826Z,47.37
2019-04-01T07:06:30.609Z,53.57
2019-04-01T07:08:59.110Z,47.87
2019-04-01T07:11:27.915Z,43.20
2019-04-01T07:13:56.603Z,45.73
2019-04-01T07:16:25.622Z,47.53
2019-04-01T07:18:54.095Z,41.23
2019-04-01T07:21:22.506Z,41.20
2019-04-01T07:23:51.175Z,41.53
2019-04-01T07:26:19.806Z,47.27
2019-04-01T07:28:48.562Z,49.40
2019-04-01T07:31:17.041Z,48.37
2019-04-01T07:33:45.471Z,50.00
2019-04-01T07:36:14.138Z,42.37
2019-04-01T07:38:42.569Z,43.00
2019-04-01T07:41:11.240Z,54.20
2019-04-01T07:43:39.928Z,40.93
2019-04-01T07:46:08.404Z,41.93
2019-04-01T07:48:37.287Z,56.23
2019-04-01T07:51:07.335Z,43.17
2019-04-01T07:53:36.346Z,40.17
2019-04-01T07:56:05.130Z,41.80
2019-04-01T07:58:33.553Z,43.13
2019-04-01T08:01:02.033Z,44.30
2019-04-01T08:03:31.357Z,49.50
2019-04-01T08:06:00.056Z,41.13
2019-04-01T08:08:28.774Z,33.00
2019-04-01T08:10:57.186Z,39.40
2019-04-01T08:13:25.609Z,42.33
2019-04-01T08:15:54.022Z,41.77
2019-04-01T08:18:22.452Z,41.17
2019-04-01T08:20:51.118Z,37.13
2019-04-01T08:23:19.618Z,34.30
2019-04-01T08:25:48.191Z,31.47
2019-04-01T08:28:16.599Z,34.67
2019-04-01T08:30:45.020Z,33.63
2019-04-01T08:33:13.474Z,35.90
2019-04-01T08:35:42.220Z,32.27
2019-04-01T08:38:10.928Z,30.17
2019-04-01T08:40:39.590Z,29.60
2019-04-01T08:43:08.313Z,28.87
2019-04-01T08:45:36.839Z,31.97
2019-04-01T08:48:05.330Z,27.90
2019-04-01T08:50:33.762Z,31.40
2019-04-01T08:53:02.245Z,37.30
2019-04-01T08:55:30.686Z,26.73
2019-04-01T08:57:59.229Z,27.97
2019-04-01T09:00:27.941Z,31.80
2019-04-01T09:02:56.958Z,27.03
2019-04-01T09:05:25.599Z,30.93
2019-04-01T09:07:54.989Z,26.80
2019-04-01T09:10:23.413Z,28.40
2019-04-01T09:12:51.837Z,25.50
2019-04-01T09:15:20.487Z,24.53
2019-04-01T09:17:48.950Z,33.50
2019-04-01T09:20:17.515Z,24.13
2019-04-01T09:22:46.142Z,26.00
2019-04-01T09:25:14.677Z,29.40
2019-04-01T09:27:43.342Z,30.93
2019-04-01T09:30:12.056Z,24.83
2019-04-01T09:32:40.504Z,26.03
2019-04-01T09:35:09.522Z,27.60
2019-04-01T09:37:37.934Z,26.53
2019-04-01T09:40:07.598Z,21.70
2019-04-01T09:42:36.014Z,28.23
2019-04-01T09:45:08.958Z,25.03
2019-04-01T09:47:37.438Z,24.53
2019-04-01T09:50:06.259Z,25.17
2019-04-01T09:52:34.705Z,26.90
2019-04-01T09:55:06.311Z,24.67
2019-04-01T09:57:34.959Z,35.90
2019-04-01T10:00:05.239Z,29.83
2019-04-01T10:02:33.851Z,29.70
2019-04-01T10:05:02.339Z,27.60
2019-04-01T10:07:31.139Z,31.50
2019-04-01T10:09:59.646Z,26.87
2019-04-01T10:12:28.046Z,22.53
2019-04-01T10:14:56.478Z,23.67
2019-04-01T10:17:24.894Z,32.33
2019-04-01T10:19:53.328Z,23.70
2019-04-01T10:22:22.586Z,28.87
2019-04-01T10:24:51.265Z,23.93
2019-04-01T10:27:19.790Z,26.30
2019-04-01T10:29:48.483Z,26.40
2019-04-01T10:32:16.987Z,24.73
2019-04-01T10:34:45.771Z,29.03
2019-04-01T10:37:14.238Z,26.03
2019-04-01T10:39:42.935Z,25.07
2019-04-01T10:42:11.346Z,24.70
2019-04-01T10:44:39.829Z,25.00
2019-04-01T10:47:08.632Z,23.90
2019-04-01T10:49:37.144Z,26.30
2019-04-01T10:52:05.856Z,28.50
2019-04-01T10:54:34.570Z,25.77
2019-04-01T10:57:03.086Z,25.57
2019-04-01T10:59:31.613Z,24.43
2019-04-01T11:02:00.023Z,25.70
2019-04-01T11:04:28.517Z,25.70
2019-04-01T11:06:58.822Z,28.10
2019-04-01T11:09:38.051Z,30.30
2019-04-01T11:11:57.536Z,31.73
2019-04-01T11:14:26.198Z,25.73
2019-04-01T11:16:54.703Z,29.13
2019-04-01T11:19:23.124Z,26.57
2019-04-01T11:21:51.567Z,28.10
2019-04-01T11:24:20.206Z,27.23
2019-04-01T11:26:48.674Z,27.00
2019-04-01T11:29:17.094Z,26.23
2019-04-01T11:31:45.831Z,33.93
2019-04-01T11:34:14.352Z,25.43
2019-04-01T11:36:43.299Z,29.57
2019-04-01T11:39:12.785Z,26.77
2019-04-01T11:41:41.568Z,23.53
2019-04-01T11:44:10.070Z,25.20
2019-04-01T11:46:38.593Z,23.27
2019-04-01T11:49:07.066Z,31.60
2019-04-01T11:51:39.763Z,23.90
2019-04-01T11:54:08.132Z,27.90
2019-04-01T11:56:36.343Z,29.73
2019-04-01T11:59:05.031Z,25.23
2019-04-01T12:01:36.651Z,23.33
2019-04-01T12:04:03.630Z,24.80
2019-04-01T12:06:32.210Z,27.33
2019-04-01T12:09:00.639Z,22.93
2019-04-01T12:11:29.058Z,23.60
2019-04-01T12:13:57.954Z,21.80
2019-04-01T12:16:26.589Z,25.20
2019-04-01T12:18:55.055Z,24.73
2019-04-01T12:21:23.474Z,27.23
2019-04-01T12:23:51.904Z,25.03
2019-04-01T12:26:20.336Z,30.90
2019-04-01T12:28:48.973Z,24.80
2019-04-01T12:31:17.426Z,23.13
2019-04-01T12:33:45.930Z,23.90
2019-04-01T12:36:15.518Z,27.17
2019-04-01T12:38:43.961Z,21.63
2019-04-01T12:41:12.640Z,19.83
2019-04-01T12:43:41.075Z,20.37
2019-04-01T12:46:09.595Z,19.53
2019-04-01T12:48:38.246Z,21.17
2019-04-01T12:51:06.720Z,29.00
2019-04-01T12:53:35.150Z,20.20
2019-04-01T12:56:03.575Z,27.60
2019-04-01T12:58:32.020Z,20.33
2019-04-01T13:01:01.213Z,21.50
2019-04-01T13:03:30.018Z,26.20
2019-04-01T13:05:58.470Z,21.33
2019-04-01T13:08:26.899Z,19.53
2019-04-01T13:10:56.691Z,21.60
2019-04-01T13:13:25.376Z,18.40
2019-04-01T13:15:53.803Z,22.03
2019-04-01T13:18:22.215Z,27.80
2019-04-01T13:20:51.971Z,17.60
2019-04-01T13:23:20.902Z,20.07
2019-04-01T13:25:49.331Z,20.10
2019-04-01T13:28:17.763Z,21.63
2019-04-01T13:30:46.687Z,21.40
2019-04-01T13:33:15.115Z,24.77
2019-04-01T13:35:43.571Z,22.53
2019-04-01T13:38:12.223Z,19.97
2019-04-01T13:40:41.111Z,21.37
2019-04-01T13:43:09.566Z,26.03
2019-04-01T13:45:38.008Z,20.93
2019-04-01T13:48:06.432Z,20.27
2019-04-01T13:50:34.871Z,20.37
2019-04-01T13:53:03.531Z,35.93
2019-04-01T13:55:31.958Z,18.90
2019-04-01T13:58:00.386Z,17.10
2019-04-01T14:00:28.820Z,18.73
2019-04-01T14:02:57.655Z,20.97
2019-04-01T14:05:26.079Z,21.20
2019-04-01T14:07:54.772Z,18.50
2019-04-01T14:10:24.041Z,20.03
2019-04-01T14:12:53.294Z,21.10
2019-04-01T14:15:21.735Z,22.73
2019-04-01T14:17:50.402Z,21.60
2019-04-01T14:20:18.831Z,19.70
2019-04-01T14:22:47.264Z,20.60
2019-04-01T14:25:15.686Z,20.20
2019-04-01T14:27:45.723Z,26.60
2019-04-01T14:30:14.438Z,23.07
2019-04-01T14:32:42.929Z,18.60
2019-04-01T14:35:11.595Z,20.73
2019-04-01T14:37:40.271Z,20.43
2019-04-01T14:40:11.185Z,17.93
2019-04-01T14:42:40.100Z,22.40
2019-04-01T14:45:08.934Z,20.50
2019-04-01T14:47:49.979Z,18.57
2019-04-01T14:50:08.187Z,19.50
2019-04-01T14:52:36.594Z,20.60
2019-04-01T14:55:06.258Z,22.63
2019-04-01T14:57:34.702Z,35.33
2019-04-01T15:00:04.514Z,28.60
2019-04-01T15:02:33.201Z,23.73
2019-04-01T15:05:04.703Z,16.67
2019-04-01T15:07:31.778Z,19.47
2019-04-01T15:10:00.261Z,18.60
2019-04-01T15:12:28.682Z,27.93
2019-04-01T15:14:57.110Z,20.90
2019-04-01T15:17:25.816Z,18.23
2019-04-01T15:19:54.278Z,19.13
2019-04-01T15:22:22.854Z,19.33
2019-04-01T15:24:52.086Z,18.70
2019-04-01T15:27:22.589Z,24.27
2019-04-01T15:29:50.877Z,18.23
2019-04-01T15:32:19.345Z,20.17
2019-04-01T15:34:47.754Z,24.33
2019-04-01T15:37:16.182Z,19.60
2019-04-01T15:39:47.182Z,18.23
2019-04-01T15:42:14.733Z,24.47
2019-04-01T15:44:43.162Z,19.53
2019-04-01T15:47:11.838Z,18.83
2019-04-01T15:49:40.495Z,20.10
2019-04-01T15:52:09.186Z,24.27
2019-04-01T15:54:37.861Z,20.60
2019-04-01T15:57:06.401Z,20.63
2019-04-01T15:59:35.107Z,16.47
2019-04-01T16:02:03.755Z,17.47
2019-04-01T16:04:32.292Z,20.60
2019-04-01T16:07:00.846Z,17.37
2019-04-01T16:09:29.254Z,20.70
2019-04-01T16:11:57.699Z,19.97
2019-04-01T16:14:26.116Z,24.47
2019-04-01T16:16:54.555Z,23.20
2019-04-01T16:19:22.972Z,20.20
2019-04-01T16:21:52.176Z,24.23
2019-04-01T16:24:21.490Z,22.50
2019-04-01T16:26:50.131Z,23.73
2019-04-01T16:29:18.593Z,21.73
2019-04-01T16:31:47.019Z,16.90
2019-04-01T16:34:15.439Z,20.33
2019-04-01T16:36:43.927Z,20.70
2019-04-01T16:39:12.367Z,22.90
2019-04-01T16:41:40.787Z,19.77
2019-04-01T16:44:09.291Z,23.77
2019-04-01T16:46:37.966Z,20.87
2019-04-01T16:49:07.497Z,21.33
2019-04-01T16:51:36.477Z,20.87
2019-04-01T16:54:05.121Z,20.50
2019-04-01T16:56:33.510Z,19.73
2019-04-01T16:59:02.171Z,21.17
2019-04-01T17:01:30.886Z,24.10
2019-04-01T17:03:59.331Z,22.93
2019-04-01T17:06:28.029Z,24.47
2019-04-01T17:08:56.514Z,22.27
2019-04-01T17:11:25.002Z,20.23
2019-04-01T17:13:53.442Z,22.90
2019-04-01T17:16:21.888Z,18.00
2019-04-01T17:18:50.318Z,18.77
2019-04-01T17:21:18.757Z,23.90
2019-04-01T17:23:47.182Z,24.23
2019-04-01T17:26:15.641Z,17.90
2019-04-01T17:28:44.376Z,18.50
2019-04-01T17:31:12.878Z,25.23
2019-04-01T17:33:41.524Z,22.80
2019-04-01T17:36:10.931Z,19.40
2019-04-01T17:38:39.686Z,31.00
2019-04-01T17:41:08.110Z,20.90
2019-04-01T17:43:36.530Z,25.10
2019-04-01T17:46:05.135Z,19.23
2019-04-01T17:48:33.569Z,19.03
2019-04-01T17:51:02.247Z,24.53
2019-04-01T17:53:30.682Z,25.73
2019-04-01T17:55:59.110Z,25.13
2019-04-01T17:58:27.562Z,21.30
2019-04-01T18:00:57.758Z,26.30
2019-04-01T18:03:26.217Z,21.23
2019-04-01T18:05:54.714Z,29.30
2019-04-01T18:08:23.178Z,23.00
2019-04-01T18:10:51.595Z,18.67
2019-04-01T18:13:20.092Z,23.27
2019-04-01T18:15:48.534Z,21.07
2019-04-01T18:18:26.565Z,24.90
2019-04-01T18:20:47.143Z,26.57
2019-04-01T18:23:15.570Z,25.60
2019-04-01T18:25:44.010Z,22.03
2019-04-01T18:28:13.075Z,23.03
2019-04-01T18:30:41.871Z,22.97
2019-04-01T18:33:10.290Z,24.00
2019-04-01T18:35:38.936Z,32.13
2019-04-01T18:38:07.410Z,28.00
2019-04-01T18:40:35.976Z,22.57
2019-04-01T18:43:04.493Z,22.67
2019-04-01T18:45:32.939Z,19.23
2019-04-01T18:48:01.375Z,27.83
2019-04-01T18:50:29.873Z,26.40
2019-04-01T18:52:58.302Z,23.40
2019-04-01T18:55:26.730Z,22.50
2019-04-01T18:57:56.533Z,25.50
2019-04-01T19:00:25.242Z,21.97
2019-04-01T19:02:55.557Z,22.67
2019-04-01T19:05:23.988Z,29.60
2019-04-01T19:07:52.489Z,22.00
2019-04-01T19:10:21.058Z,23.60
2019-04-01T19:12:49.475Z,23.40
2019-04-01T19:15:17.973Z,25.43
2019-04-01T19:17:46.398Z,28.63
2019-04-01T19:20:14.985Z,27.97
2019-04-01T19:22:43.662Z,26.10
2019-04-01T19:25:12.467Z,28.30
2019-04-01T19:27:40.953Z,35.33
2019-04-01T19:30:10.273Z,26.33
2019-04-01T19:32:38.981Z,31.80
2019-04-01T19:35:09.563Z,28.97
2019-04-01T19:37:38.360Z,25.77
2019-04-01T19:40:08.093Z,29.93
2019-04-01T19:42:39.291Z,27.53
2019-04-01T19:45:07.149Z,30.70
2019-04-01T19:47:35.602Z,28.23
2019-04-01T19:50:07.337Z,26.73
2019-04-01T19:52:35.989Z,25.63
2019-04-01T19:55:06.487Z,27.33
2019-04-01T19:57:34.902Z,23.37
2019-04-01T20:00:04.769Z,22.83
2019-04-01T20:02:34.273Z,32.80
2019-04-01T20:05:03.268Z,27.23
2019-04-01T20:07:31.685Z,37.83
2019-04-01T20:10:00.121Z,27.07
2019-04-01T20:12:28.534Z,27.93
2019-04-01T20:14:58.860Z,27.43
2019-04-01T20:17:27.106Z,25.77
2019-04-01T20:19:55.530Z,25.60
2019-04-01T20:22:25.181Z,29.23
2019-04-01T20:24:54.511Z,25.37
2019-04-01T20:27:23.019Z,32.53
2019-04-01T20:29:51.429Z,29.33
2019-04-01T20:32:20.578Z,21.73
2019-04-01T20:34:56.854Z,23.70
2019-04-01T20:37:19.741Z,26.77
2019-04-01T20:39:48.161Z,19.93
2019-04-01T20:42:17.226Z,31.00
2019-04-01T20:44:45.932Z,22.00
2019-04-01T20:47:14.601Z,22.77
2019-04-01T20:49:43.037Z,24.40
2019-04-01T20:52:11.466Z,24.50
2019-04-01T20:54:39.877Z,18.90
2019-04-01T20:57:08.558Z,28.53
2019-04-01T20:59:37.326Z,22.20
2019-04-01T21:02:05.823Z,22.50
2019-04-01T21:04:34.241Z,23.70
2019-04-01T21:07:02.697Z,23.83
2019-04-01T21:09:31.114Z,21.83
2019-04-01T21:11:59.556Z,24.53
2019-04-01T21:14:27.975Z,22.30
2019-04-01T21:16:56.412Z,26.87
2019-04-01T21:19:24.827Z,19.93
2019-04-01T21:21:53.255Z,34.70
2019-04-01T21:24:21.669Z,22.67
2019-04-01T21:26:50.098Z,25.83
2019-04-01T21:29:18.518Z,24.30
2019-04-01T21:31:47.166Z,22.53
2019-04-01T21:34:16.649Z,22.63
2019-04-01T21:36:45.099Z,26.13
2019-04-01T21:39:13.574Z,20.90
2019-04-01T21:41:42.264Z,38.73
2019-04-01T21:44:10.687Z,21.83
2019-04-01T21:46:39.358Z,23.33
2019-04-01T21:49:08.122Z,25.60
2019-04-01T21:51:36.944Z,22.63
2019-04-01T21:54:05.622Z,17.60
2019-04-01T21:56:34.050Z,26.77
2019-04-01T21:59:02.715Z,28.53
2019-04-01T22:01:31.420Z,26.47
2019-04-01T22:04:00.122Z,27.20
2019-04-01T22:06:28.545Z,23.00
2019-04-01T22:08:56.969Z,35.60
2019-04-01T22:11:25.602Z,38.23
2019-04-01T22:13:54.057Z,27.17
2019-04-01T22:16:22.485Z,26.00
2019-04-01T22:18:50.896Z,22.60
2019-04-01T22:21:19.566Z,26.93
2019-04-01T22:23:47.989Z,28.77
2019-04-01T22:26:16.622Z,30.60
2019-04-01T22:28:45.094Z,33.73
2019-04-01T22:31:15.189Z,29.00
2019-04-01T22:33:43.979Z,29.73
2019-04-01T22:36:12.395Z,31.77
2019-04-01T22:38:41.042Z,31.57
2019-04-01T22:41:09.502Z,26.87
2019-04-01T22:43:37.930Z,29.13
2019-04-01T22:46:06.354Z,37.57
2019-04-01T22:48:34.777Z,28.60
2019-04-01T22:51:03.193Z,29.97
2019-04-01T22:53:32.361Z,26.87
2019-04-01T22:56:02.071Z,30.20
2019-04-01T22:58:30.755Z,31.30
2019-04-01T23:00:59.419Z,27.37
2019-04-01T23:03:27.889Z,32.60
2019-04-01T23:05:56.600Z,33.93
2019-04-01T23:08:25.061Z,31.90
2019-04-01T23:10:53.771Z,33.93
2019-04-01T23:13:22.232Z,31.33
2019-04-01T23:15:50.658Z,38.53
2019-04-01T23:18:19.086Z,31.90
2019-04-01T23:20:47.508Z,33.97
2019-04-01T23:23:16.198Z,30.87
2019-04-01T23:25:44.870Z,26.60
2019-04-01T23:28:13.520Z,34.93
2019-04-01T23:30:42.052Z,37.43
2019-04-01T23:33:10.696Z,33.23
2019-04-01T23:35:39.152Z,30.00
2019-04-01T23:38:07.877Z,34.63
2019-04-01T23:40:36.495Z,30.37
2019-04-01T23:43:05.159Z,30.67
2019-04-01T23:45:33.583Z,28.60
2019-04-01T23:48:02.015Z,35.37
2019-04-01T23:50:30.688Z,35.83
2019-04-01T23:52:59.375Z,42.33
2019-04-01T23:55:29.014Z,33.03
2019-04-01T23:57:57.919Z,33.23
